Time;durP1;ratioP1;P1;durP2;ratioP2;P2;SDS_P1;SDS_P2;PMS_P1;PMS_P2;Temp;Humidity;BMP_temperature;BMP_pressure;BME280_temperature;BME280_humidity;BME280_pressure;Samples;Min_cycle;Max_cycle;Signal;HPM_P1;HPM_P2
2023/04/22 00:01:14;;;;;;;1999.90;999.90;;;;;;;10.30;100.00;94805.38;4985514;28;20213;-60
2023/04/22 00:03:40;;;;;;;1999.90;999.90;;;;;;;10.29;100.00;94798.34;4985427;28;20196;-59
2023/04/22 00:06:06;;;;;;;1999.90;999.90;;;;;;;10.22;100.00;94795.75;4985474;28;20222;-59
2023/04/22 00:08:31;;;;;;;1999.90;999.90;;;;;;;10.10;100.00;94797.88;4985382;28;20239;-59
2023/04/22 00:10:57;;;;;;;1999.90;999.90;;;;;;;10.04;100.00;94793.28;4969418;28;20275;-60
2023/04/22 00:13:22;;;;;;;1999.90;999.90;;;;;;;9.95;100.00;94791.06;4985362;28;20203;-60
2023/04/22 00:15:47;;;;;;;1999.90;999.90;;;;;;;10.04;100.00;94777.69;4985657;28;20192;-60
2023/04/22 00:18:13;;;;;;;1999.90;999.90;;;;;;;10.06;100.00;94783.53;4985515;28;20190;-60
2023/04/22 00:20:42;;;;;;;1999.90;999.90;;;;;;;9.96;100.00;94775.50;4985521;28;20201;-60
2023/04/22 00:23:08;;;;;;;1999.90;999.90;;;;;;;9.87;100.00;94769.78;4985548;28;20231;-60
2023/04/22 00:25:34;;;;;;;1999.90;999.90;;;;;;;9.84;100.00;94774.09;4985475;28;20216;-60
2023/04/22 00:27:59;;;;;;;1999.90;999.90;;;;;;;9.82;100.00;94775.72;4985582;28;20219;-60
2023/04/22 00:30:24;;;;;;;1999.90;999.90;;;;;;;9.79;100.00;94771.84;4985428;28;20200;-60
2023/04/22 00:32:50;;;;;;;1999.90;999.90;;;;;;;9.78;100.00;94769.53;4985288;28;20268;-60
2023/04/22 00:35:15;;;;;;;1999.90;999.90;;;;;;;9.74;100.00;94769.59;4985193;28;20211;-60
2023/04/22 00:37:41;;;;;;;1999.90;999.90;;;;;;;9.72;100.00;94780.16;4985166;28;20316;-60
2023/04/22 00:40:07;;;;;;;1999.90;999.90;;;;;;;9.79;100.00;94774.59;4985094;28;20231;-61
2023/04/22 00:42:32;;;;;;;1999.90;999.90;;;;;;;9.75;100.00;94781.28;4984821;28;20200;-60
2023/04/22 00:44:58;;;;;;;1999.90;999.90;;;;;;;9.72;100.00;94769.25;4968878;28;20207;-60
2023/04/22 00:47:25;;;;;;;1999.90;999.90;;;;;;;9.66;100.00;94768.16;4985370;28;20197;-61
2023/04/22 00:49:52;;;;;;;1999.90;999.90;;;;;;;9.64;100.00;94765.09;4968782;28;20200;-60
2023/04/22 00:52:17;;;;;;;1999.90;999.90;;;;;;;9.52;100.00;94770.31;4984875;28;20257;-60
2023/04/22 00:54:43;;;;;;;1999.90;999.90;;;;;;;9.40;100.00;94763.47;4985386;28;20201;-60
2023/04/22 00:57:09;;;;;;;1999.90;999.90;;;;;;;9.38;100.00;94763.13;4985079;28;20312;-60
2023/04/22 00:59:34;;;;;;;1999.90;999.90;;;;;;;9.35;100.00;94758.50;4968850;28;20252;-60
2023/04/22 01:02:00;;;;;;;1999.90;999.90;;;;;;;9.37;100.00;94756.13;4984631;28;20204;-59
2023/04/22 01:04:25;;;;;;;1999.90;999.90;;;;;;;9.32;100.00;94764.75;4985009;28;20211;-60
2023/04/22 01:06:52;;;;;;;1999.90;999.90;;;;;;;9.36;100.00;94754.56;4984644;28;20204;-60
2023/04/22 01:09:19;;;;;;;1999.90;999.90;;;;;;;9.39;100.00;94764.66;4968488;28;20231;-59
2023/04/22 01:11:46;;;;;;;1999.90;999.90;;;;;;;9.37;100.00;94766.25;4984777;28;20204;-61
2023/04/22 01:14:11;;;;;;;1999.90;999.90;;;;;;;9.42;100.00;94763.06;4984927;28;20200;-60
2023/04/22 01:16:37;;;;;;;1999.90;999.90;;;;;;;9.40;100.00;94760.75;4969779;28;20228;-59
2023/04/22 01:19:05;;;;;;;1999.90;999.90;;;;;;;9.36;100.00;94757.31;4988638;28;20278;-59
2023/04/22 01:21:33;;;;;;;1999.90;999.90;;;;;;;9.31;100.00;94752.31;4988954;28;20243;-60
2023/04/22 01:24:02;;;;;;;1999.90;999.90;;;;;;;9.31;100.00;94757.00;4989106;28;20205;-59
2023/04/22 01:26:28;;;;;;;1999.90;999.90;;;;;;;9.28;100.00;94746.91;4988296;28;20322;-59
2023/04/22 01:28:53;;;;;;;1999.90;999.90;;;;;;;9.24;100.00;94748.91;4988466;28;20204;-59
2023/04/22 01:31:19;;;;;;;1999.90;999.90;;;;;;;9.16;100.00;94748.25;4988399;28;20288;-60
2023/04/22 01:33:45;;;;;;;1999.90;999.90;;;;;;;9.19;100.00;94743.94;4972208;28;20279;-60
2023/04/22 01:36:11;;;;;;;1999.90;999.90;;;;;;;9.18;100.00;94745.13;4988523;28;20222;-60
2023/04/22 01:38:36;;;;;;;1999.90;999.90;;;;;;;9.17;100.00;94751.72;4988367;28;20267;-60
2023/04/22 01:41:02;;;;;;;1999.90;999.90;;;;;;;9.12;100.00;94747.53;4988127;28;20200;-60
2023/04/22 01:43:31;;;;;;;1999.90;999.90;;;;;;;9.08;100.00;94738.63;4988436;28;20223;-60
2023/04/22 01:45:59;;;;;;;1999.90;999.90;;;;;;;9.03;100.00;94741.81;4988305;28;20196;-60
2023/04/22 01:48:24;;;;;;;1999.90;999.90;;;;;;;9.07;100.00;94737.06;4988303;28;20197;-61
2023/04/22 01:50:50;;;;;;;1999.90;999.90;;;;;;;9.07;100.00;94739.78;4988190;28;20184;-60
2023/04/22 01:53:15;;;;;;;1999.90;999.90;;;;;;;9.05;100.00;94736.72;4988581;28;20227;-60
2023/04/22 01:55:42;;;;;;;1999.90;999.90;;;;;;;8.97;100.00;94738.00;4988124;28;20200;-59
2023/04/22 01:58:07;;;;;;;1999.90;999.90;;;;;;;8.97;100.00;94735.28;4988273;28;20212;-61
2023/04/22 02:00:33;;;;;;;1999.90;999.90;;;;;;;8.98;100.00;94728.66;4987912;28;20221;-60
2023/04/22 02:02:58;;;;;;;1999.90;999.90;;;;;;;8.88;100.00;94739.66;4971696;28;20201;-60
2023/04/22 02:05:25;;;;;;;1999.90;999.90;;;;;;;8.82;100.00;94736.63;4987666;28;20207;-60
2023/04/22 02:07:52;;;;;;;1999.90;999.90;;;;;;;8.84;100.00;94728.81;4987742;28;20200;-60
2023/04/22 02:10:18;;;;;;;1999.90;999.90;;;;;;;8.77;100.00;94737.06;4987809;28;20192;-60
2023/04/22 02:12:43;;;;;;;1999.90;999.90;;;;;;;8.78;100.00;94730.44;4987869;28;20263;-60
2023/04/22 02:15:09;;;;;;;1999.90;999.90;;;;;;;8.82;100.00;94722.25;4987780;28;20235;-62
2023/04/22 02:17:34;;;;;;;1999.90;999.90;;;;;;;8.75;100.00;94722.34;4987561;28;20356;-60
2023/04/22 02:20:04;;;;;;;1999.90;999.90;;;;;;;8.73;100.00;94719.22;4987376;28;20209;-60
2023/04/22 02:22:30;;;;;;;1999.90;999.90;;;;;;;8.71;100.00;94716.91;4987973;28;20192;-60
2023/04/22 02:24:56;;;;;;;1999.90;999.90;;;;;;;8.64;100.00;94708.09;4987370;28;20193;-60
2023/04/22 02:27:21;;;;;;;1999.90;999.90;;;;;;;8.54;100.00;94715.19;4987977;28;20215;-60
2023/04/22 02:29:47;;;;;;;1999.90;999.90;;;;;;;8.54;100.00;94709.75;4987284;28;20192;-60
2023/04/22 02:32:12;;;;;;;1999.90;999.90;;;;;;;8.56;100.00;94704.66;4987664;28;20196;-60
2023/04/22 02:34:38;;;;;;;1999.90;999.90;;;;;;;8.55;100.00;94705.84;4987688;28;20192;-60
2023/04/22 02:37:04;;;;;;;1999.90;999.90;;;;;;;8.54;100.00;94704.31;4987727;28;20275;-60
2023/04/22 02:39:29;;;;;;;1999.90;999.90;;;;;;;8.52;100.00;94695.78;4987170;28;20215;-60
2023/04/22 02:41:55;;;;;;;1999.90;999.90;;;;;;;8.49;100.00;94702.03;4971076;28;20279;-60
2023/04/22 02:44:20;;;;;;;1999.90;999.90;;;;;;;8.50;100.00;94698.16;4987279;28;20199;-59
2023/04/22 02:46:45;;;;;;;1999.90;999.90;;;;;;;8.45;100.00;94698.56;4987275;28;20188;-59
2023/04/22 02:49:11;;;;;;;1999.90;999.90;;;;;;;8.45;100.00;94684.22;4987073;28;20181;-60
2023/04/22 02:51:37;;;;;;;1999.90;999.90;;;;;;;8.39;100.00;94688.56;4986967;28;20263;-60
2023/04/22 02:54:03;;;;;;;1999.90;999.90;;;;;;;8.27;100.00;94684.41;4971264;28;20188;-60
2023/04/22 02:56:28;;;;;;;1999.90;999.90;;;;;;;8.28;100.00;94675.09;4987437;28;20207;-60
2023/04/22 02:58:54;;;;;;;1999.90;999.90;;;;;;;8.27;100.00;94673.53;4987030;28;20215;-60
2023/04/22 03:01:19;;;;;;;1999.90;999.90;;;;;;;8.25;100.00;94675.88;4986728;28;20222;-60
2023/04/22 03:03:44;;;;;;;1999.90;999.90;;;;;;;8.24;100.00;94665.41;4986819;28;20188;-60
2023/04/22 03:06:10;;;;;;;1999.90;999.90;;;;;;;8.18;100.00;94665.06;4986662;28;20184;-61
2023/04/22 03:08:35;;;;;;;1999.90;999.90;;;;;;;8.14;100.00;94653.44;4970556;28;20196;-60
2023/04/22 03:11:00;;;;;;;1999.90;999.90;;;;;;;8.01;100.00;94655.13;4986723;28;20189;-60
2023/04/22 03:13:26;;;;;;;1999.90;999.90;;;;;;;8.02;100.00;94651.25;4986578;28;20211;-60
2023/04/22 03:15:51;;;;;;;1999.90;999.90;;;;;;;8.07;100.00;94639.94;4987018;28;20185;-60
2023/04/22 03:18:16;;;;;;;1999.90;999.90;;;;;;;8.00;100.00;94626.41;4986368;28;20187;-59
2023/04/22 03:20:42;;;;;;;1999.90;999.90;;;;;;;8.01;100.00;94633.38;4986574;28;20191;-60
2023/04/22 03:23:07;;;;;;;1999.90;999.90;;;;;;;8.03;100.00;94628.31;4986333;28;20169;-60
2023/04/22 03:25:34;;;;;;;1999.90;999.90;;;;;;;8.00;100.00;94626.41;4986752;28;20200;-60
2023/04/22 03:27:59;;;;;;;1999.90;999.90;;;;;;;8.01;100.00;94617.06;4986531;28;20203;-59
2023/04/22 03:30:25;;;;;;;1999.90;999.90;;;;;;;7.94;100.00;94617.16;4986278;28;20222;-60
2023/04/22 03:32:52;;;;;;;1999.90;999.90;;;;;;;7.93;100.00;94615.63;4986176;28;20188;-59
2023/04/22 03:35:18;;;;;;;1999.90;999.90;;;;;;;7.97;100.00;94607.44;4986598;28;20278;-60
2023/04/22 03:37:43;;;;;;;1999.90;999.90;;;;;;;7.90;100.00;94605.56;4986159;28;20280;-60
2023/04/22 03:40:09;;;;;;;1999.90;999.90;;;;;;;7.87;100.00;94600.91;4985446;28;20208;-61
2023/04/22 03:42:34;;;;;;;1999.90;999.90;;;;;;;7.73;100.00;94595.66;4986082;28;20267;-60
2023/04/22 03:45:00;;;;;;;1999.90;999.90;;;;;;;7.72;100.00;94604.97;4986119;28;20180;-60
2023/04/22 03:47:25;;;;;;;1999.90;999.90;;;;;;;7.70;100.00;94601.09;4986419;28;20243;-60
2023/04/22 03:49:50;;;;;;;1999.90;999.90;;;;;;;7.68;100.00;94589.91;4986355;28;20196;-59
2023/04/22 03:52:16;;;;;;;1999.90;999.90;;;;;;;7.65;100.00;94593.41;4969836;28;20223;-60
2023/04/22 03:54:41;;;;;;;1999.90;999.90;;;;;;;7.64;100.00;94587.19;4970386;28;20168;-60
2023/04/22 03:57:07;;;;;;;1999.90;999.90;;;;;;;7.64;100.00;94591.84;4986370;28;20199;-60
2023/04/22 03:59:32;;;;;;;1999.90;999.90;;;;;;;7.78;100.00;94587.06;4985755;28;20216;-60
2023/04/22 04:01:58;;;;;;;1999.90;999.90;;;;;;;7.78;100.00;94587.06;4985767;28;20371;-59
2023/04/22 04:04:23;;;;;;;1999.90;999.90;;;;;;;7.72;100.00;94591.38;4985773;28;20204;-59
2023/04/22 04:06:49;;;;;;;1999.90;999.90;;;;;;;7.70;100.00;94588.31;4985941;28;20194;-60
2023/04/22 04:09:14;;;;;;;1999.90;999.90;;;;;;;7.67;100.00;94589.13;4985465;28;20206;-60
2023/04/22 04:11:39;;;;;;;1999.90;999.90;;;;;;;7.65;100.00;94588.72;4985590;28;20312;-60
2023/04/22 04:14:05;;;;;;;1999.90;999.90;;;;;;;7.59;100.00;94584.94;4985599;28;20197;-59
2023/04/22 04:16:30;;;;;;;1999.90;999.90;;;;;;;7.56;100.00;94591.16;4985571;28;20195;-60
2023/04/22 04:18:55;;;;;;;1999.90;999.90;;;;;;;7.62;100.00;94589.56;4985382;28;20207;-60
2023/04/22 04:21:21;;;;;;;1999.90;999.90;;;;;;;7.62;100.00;94583.34;4985683;28;20191;-60
2023/04/22 04:23:46;;;;;;;1999.90;999.90;;;;;;;7.68;100.00;94577.06;4985190;28;20199;-60
2023/04/22 04:26:13;;;;;;;1999.90;999.90;;;;;;;7.62;100.00;94580.63;4969313;28;20195;-62
2023/04/22 04:28:40;;;;;;;1999.90;999.90;;;;;;;7.68;100.00;94570.88;4985627;28;20203;-59
2023/04/22 04:31:06;;;;;;;1999.90;999.90;;;;;;;7.74;100.00;94564.59;4985464;28;20226;-59
2023/04/22 04:33:31;;;;;;;1999.90;999.90;;;;;;;7.90;100.00;94567.50;4985231;28;20199;-59
2023/04/22 04:35:57;;;;;;;1999.90;999.90;;;;;;;8.04;100.00;94567.34;4985302;28;20196;-60
2023/04/22 04:38:23;;;;;;;1999.90;999.90;;;;;;;8.06;100.00;94565.00;4985010;28;20199;-59
2023/04/22 04:40:50;;;;;;;1999.90;999.90;;;;;;;8.11;100.00;94572.69;4984965;28;20197;-59
2023/04/22 04:43:16;;;;;;;1999.90;999.90;;;;;;;8.23;100.00;94574.13;4985024;28;20212;-61
2023/04/22 04:45:45;;;;;;;1999.90;999.90;;;;;;;8.64;100.00;94582.91;4969147;28;20195;-60
2023/04/22 04:48:15;;;;;;;1999.90;999.90;;;;;;;9.14;100.00;94589.91;4985449;28;20192;-60
2023/04/22 04:50:41;;;;;;;1999.90;999.90;;;;;;;9.70;100.00;94637.25;4985062;28;20192;-61
2023/04/22 04:53:07;;;;;;;1999.90;999.90;;;;;;;10.34;100.00;94669.63;4984898;28;20181;-59
2023/04/22 04:55:32;;;;;;;1999.90;999.90;;;;;;;10.97;100.00;94698.38;4985342;28;20194;-60
2023/04/22 04:57:58;;;;;;;1999.90;999.90;;;;;;;11.66;100.00;94719.91;4969096;28;20273;-59
2023/04/22 05:00:23;;;;;;;1999.90;999.90;;;;;;;12.07;100.00;94744.72;4968617;28;20212;-60
2023/04/22 05:02:48;;;;;;;1999.90;999.90;;;;;;;12.21;100.00;94761.53;4985082;28;20197;-59
2023/04/22 05:05:14;;;;;;;1999.90;999.90;;;;;;;12.00;100.00;94759.34;4968861;28;20227;-60
2023/04/22 05:07:39;;;;;;;1999.90;999.90;;;;;;;12.13;100.00;94759.44;4985050;28;20231;-59
2023/04/22 05:10:05;;;;;;;1999.90;999.90;;;;;;;12.20;100.00;94770.22;4984797;28;20208;-59
2023/04/22 05:12:31;;;;;;;1999.90;999.90;;;;;;;12.61;100.00;94767.59;4984738;28;20223;-59
2023/04/22 05:14:56;;;;;;;1999.90;999.90;;;;;;;12.98;100.00;94775.22;4985204;28;20200;-59
2023/04/22 05:17:21;;;;;;;1999.90;999.90;;;;;;;13.24;100.00;94768.59;4984749;28;20200;-60
2023/04/22 05:19:47;;;;;;;1999.90;999.90;;;;;;;13.39;100.00;94777.97;4968998;28;20275;-59
2023/04/22 05:22:12;;;;;;;1999.90;999.90;;;;;;;13.72;100.00;94771.09;4984766;28;20247;-60
2023/04/22 05:24:37;;;;;;;1999.90;999.90;;;;;;;13.83;100.00;94773.50;4985049;28;20211;-60
2023/04/22 05:27:03;;;;;;;1999.90;999.90;;;;;;;14.22;100.00;94773.88;4985121;28;20204;-59
2023/04/22 05:29:28;;;;;;;1999.90;999.90;;;;;;;14.06;100.00;94764.94;4985087;28;20212;-59
2023/04/22 05:31:54;;;;;;;1999.90;999.90;;;;;;;14.62;100.00;94768.59;4984830;28;20199;-59
2023/04/22 05:34:19;;;;;;;1999.90;999.90;;;;;;;14.93;100.00;94772.25;4984873;28;20223;-67
2023/04/22 05:36:44;;;;;;;1999.90;999.90;;;;;;;15.02;100.00;94775.84;4984483;28;20220;-70
2023/04/22 05:39:10;;;;;;;1999.90;999.90;;;;;;;15.78;100.00;94774.19;4984725;28;20236;-70
2023/04/22 05:41:35;;;;;;;1999.90;999.90;;;;;;;16.06;100.00;94773.13;4984417;28;20192;-69
2023/04/22 05:44:01;;;;;;;1999.90;999.90;;;;;;;15.99;100.00;94778.91;4984527;28;20272;-68
2023/04/22 05:46:26;;;;;;;1999.90;999.90;;;;;;;16.36;100.00;94775.03;4984515;28;20220;-69
2023/04/22 05:48:53;;;;;;;1999.90;999.90;;;;;;;16.42;100.00;94784.28;4984574;28;20212;-69
2023/04/22 05:51:19;;;;;;;1999.90;999.90;;;;;;;16.68;100.00;94781.28;4984952;28;20196;-69
2023/04/22 05:53:44;;;;;;;1999.90;999.90;;;;;;;16.79;100.00;94789.88;4984126;28;20189;-68
2023/04/22 05:56:09;;;;;;;1999.90;999.90;;;;;;;16.86;100.00;94787.59;4984925;28;20177;-70
2023/04/22 05:58:36;;;;;;;1999.90;999.90;;;;;;;16.87;100.00;94799.38;4984912;28;20196;-67
2023/04/22 06:01:01;;;;;;;1999.90;999.90;;;;;;;17.39;100.00;94797.09;4984750;28;20259;-67
2023/04/22 06:03:27;;;;;;;1999.90;999.90;;;;;;;18.36;100.00;94795.84;4986060;28;20227;-67
2023/04/22 06:05:52;;;;;;;1999.90;999.90;;;;;;;18.38;100.00;94804.41;4987783;28;20200;-68
2023/04/22 06:08:18;;;;;;;1999.90;999.90;;;;;;;18.28;100.00;94800.16;4971886;28;20204;-69
2023/04/22 06:10:44;;;;;;;1999.90;999.90;;;;;;;18.24;100.00;94816.13;4987907;28;20267;-69
2023/04/22 06:13:09;;;;;;;1999.90;999.90;;;;;;;18.47;100.00;94812.69;4971727;28;20205;-69
2023/04/22 06:15:35;;;;;;;1999.90;999.90;;;;;;;18.56;100.00;94816.19;4987653;28;20196;-71
2023/04/22 06:18:00;;;;;;;1999.90;999.90;;;;;;;18.56;100.00;94815.41;4987626;28;20197;-70
2023/04/22 06:20:26;;;;;;;1999.90;999.90;;;;;;;18.91;100.00;94824.75;4987588;28;20208;-70
2023/04/22 06:22:51;;;;;;;1999.90;999.90;;;;;;;19.42;100.00;94825.34;4987539;28;20228;-72
2023/04/22 06:25:16;;;;;;;1999.90;999.90;;;;;;;19.59;98.66;94818.09;4987245;28;20247;-73
2023/04/22 06:27:42;;;;;;;1999.90;999.90;;;;;;;20.14;90.90;94821.88;4987985;28;20237;-72
2023/04/22 06:30:09;;;;;;;1999.90;999.90;;;;;;;20.08;87.65;94826.56;4988053;28;20200;-72
2023/04/22 06:32:35;;;;;;;1999.90;999.90;;;;;;;20.51;82.80;94825.78;4988032;28;20247;-72
2023/04/22 06:35:00;;;;;;;1999.90;999.90;;;;;;;21.05;82.83;94813.22;4987085;28;20200;-72
2023/04/22 06:37:26;;;;;;;1999.90;999.90;;;;;;;21.05;82.83;94813.22;4987330;28;20276;-72
2023/04/22 06:39:51;;;;;;;1999.90;999.90;;;;;;;23.08;72.57;94819.25;4987280;28;20227;-73
2023/04/22 06:42:16;;;;;;;1999.90;999.90;;;;;;;23.08;72.57;94819.25;4987055;28;20196;-72
2023/04/22 06:44:42;;;;;;;1999.90;999.90;;;;;;;23.08;72.57;94819.25;4987070;28;20241;-72
2023/04/22 06:47:07;;;;;;;1999.90;999.90;;;;;;;23.08;72.57;94819.25;4987174;28;20247;-71
2023/04/22 06:49:34;;;;;;;1999.90;999.90;;;;;;;23.08;72.57;94819.25;4987242;28;20239;-72
2023/04/22 06:52:00;;;;;;;1999.90;999.90;;;;;;;23.08;72.57;94819.25;4987270;28;20205;-72
2023/04/22 06:54:25;;;;;;;1999.90;999.90;;;;;;;23.08;72.57;94819.25;4987165;28;20300;-72
2023/04/22 06:56:50;;;;;;;1999.90;999.90;;;;;;;23.08;72.57;94819.25;4986735;28;20196;-72
2023/04/22 06:59:16;;;;;;;1999.90;999.90;;;;;;;23.08;72.57;94819.25;4987245;28;20192;-72
2023/04/22 07:01:41;;;;;;;1999.90;999.90;;;;;;;23.08;72.57;94819.25;4986703;28;20280;-68
2023/04/22 07:04:06;;;;;;;1999.90;999.90;;;;;;;23.08;72.57;94819.25;4987139;28;20193;-67
2023/04/22 07:06:32;;;;;;;1999.90;999.90;;;;;;;23.08;72.57;94819.25;4986771;28;20247;-67
2023/04/22 07:08:57;;;;;;;1999.90;999.90;;;;;;;24.45;53.68;94825.28;4986640;28;20200;-67
2023/04/22 07:11:23;;;;;;;1999.90;999.90;;;;;;;25.42;48.01;94827.72;4986477;28;20207;-67
2023/04/22 07:13:48;;;;;;;1999.90;999.90;;;;;;;25.16;48.39;94821.69;4970017;28;20220;-67
2023/04/22 07:16:13;;;;;;;1999.90;999.90;;;;;;;25.43;47.04;94820.84;4985897;28;20232;-70
2023/04/22 07:18:39;;;;;;;1999.90;999.90;;;;;;;24.58;45.59;94819.19;4970294;28;20204;-66
2023/04/22 07:21:04;;;;;;;1999.90;999.90;;;;;;;24.12;46.55;94821.69;4986072;28;20193;-66
2023/04/22 07:23:30;;;;;;;1999.90;999.90;;;;;;;24.47;47.95;94822.00;4986727;28;20192;-68
2023/04/22 07:25:56;;;;;;;1999.90;999.90;;;;;;;25.87;45.65;94822.72;4986261;28;20232;-68
2023/04/22 07:28:21;;;;;;;1999.90;999.90;;;;;;;31.10;45.65;94822.72;4986667;28;20188;-68
2023/04/22 07:30:47;;;;;;;1999.90;999.90;;;;;;;26.97;41.20;94816.34;4986698;28;20303;-69
2023/04/22 07:33:13;;;;;;;1999.90;999.90;;;;;;;26.51;42.95;94808.03;4986576;28;20276;-65
2023/04/22 07:35:38;;;;;;;1999.90;999.90;;;;;;;26.78;42.75;94807.09;4986552;28;20196;-64
2023/04/22 07:38:04;;;;;;;1999.90;999.90;;;;;;;26.47;40.83;94813.19;4986049;28;20197;-65
2023/04/22 07:40:29;;;;;;;1999.90;999.90;;;;;;;26.65;40.54;94812.56;4986223;28;20204;-63
2023/04/22 07:42:54;;;;;;;1999.90;999.90;;;;;;;27.32;39.61;94813.44;4985222;28;20208;-66
2023/04/22 07:45:19;;;;;;;1999.90;999.90;;;;;;;27.86;38.14;94805.69;4968910;28;20200;-68
2023/04/22 07:47:45;;;;;;;1999.90;999.90;;;;;;;28.00;37.78;94812.91;4969137;28;20212;-68
2023/04/22 07:50:10;;;;;;;1999.90;999.90;;;;;;;28.09;36.17;94818.13;4969034;28;20192;-67
2023/04/22 07:52:36;;;;;;;1999.90;999.90;;;;;;;27.52;37.20;94821.41;4968936;28;20208;-67
2023/04/22 07:55:01;;;;;;;1999.90;999.90;;;;;;;27.61;36.67;94821.03;4969005;28;20191;-69
2023/04/22 07:57:26;;;;;;;1999.90;999.90;;;;;;;27.74;37.75;94809.91;4968998;28;20212;-68
2023/04/22 07:59:52;;;;;;;1999.90;999.90;;;;;;;27.30;37.76;94827.25;4968593;28;20228;-69
2023/04/22 08:02:17;;;;;;;1999.90;999.90;;;;;;;27.37;36.22;94821.06;4969195;28;20188;-68
2023/04/22 08:04:43;;;;;;;1999.90;999.90;;;;;;;27.56;35.81;94815.47;4969226;28;20230;-67
2023/04/22 08:07:08;;;;;;;1999.90;999.90;;;;;;;27.85;34.95;94809.78;4969203;28;20224;-66
2023/04/22 08:09:34;;;;;;;1999.90;999.90;;;;;;;28.82;34.84;94815.75;4968685;28;20231;-69
2023/04/22 08:12:00;;;;;;;1999.90;999.90;;;;;;;29.70;34.13;94813.41;4968729;28;20193;-68
2023/04/22 08:14:25;;;;;;;1999.90;999.90;;;;;;;28.98;33.20;94817.53;4968971;28;20215;-70
2023/04/22 08:16:51;;;;;;;1999.90;999.90;;;;;;;28.98;33.08;94822.41;4969171;28;20224;-69
2023/04/22 08:19:17;;;;;;;1999.90;999.90;;;;;;;29.03;32.20;94825.16;4985503;28;20212;-71
2023/04/22 08:21:43;;;;;;;1999.90;999.90;;;;;;;29.57;30.51;94819.03;4985257;28;20195;-70
2023/04/22 08:24:09;;;;;;;1999.90;999.90;;;;;;;29.53;32.80;94824.25;4985448;28;20200;-68
2023/04/22 08:26:35;;;;;;;1999.90;999.90;;;;;;;29.00;31.95;94817.75;4985313;28;20204;-69
2023/04/22 08:29:00;;;;;;;1999.90;999.90;;;;;;;28.78;32.90;94820.19;4985465;28;20198;-70
2023/04/22 08:31:25;;;;;;;1999.90;999.90;;;;;;;29.19;33.49;94809.25;4984965;28;20168;-68
2023/04/22 08:33:51;;;;;;;1999.90;999.90;;;;;;;29.48;31.05;94819.44;4985454;28;20197;-67
2023/04/22 08:36:16;;;;;;;1999.90;999.90;;;;;;;28.70;31.71;94824.91;4969481;28;20193;-69
2023/04/22 08:38:42;;;;;;;1999.90;999.90;;;;;;;27.29;33.78;94827.78;4984907;28;20219;-64
2023/04/22 08:41:08;;;;;;;1999.90;999.90;;;;;;;28.72;32.21;94827.94;4985446;28;20218;-68
2023/04/22 08:43:34;;;;;;;1999.90;999.90;;;;;;;28.46;32.97;94825.81;4969109;28;20425;-69
2023/04/22 08:46:00;;;;;;;1999.90;999.90;;;;;;;29.00;34.10;94825.44;4968782;28;20191;-72
2023/04/22 08:48:26;;;;;;;1999.90;999.90;;;;;;;29.47;32.42;94817.94;4984963;28;20234;-66
2023/04/22 08:50:52;;;;;;;1999.90;999.90;;;;;;;30.05;32.95;94815.75;4984966;28;20189;-63
2023/04/22 08:53:19;;;;;;;1999.90;999.90;;;;;;;30.60;30.64;94820.16;4984791;28;20199;-64
2023/04/22 08:55:45;;;;;;;1999.90;999.90;;;;;;;30.22;31.22;94814.09;4984957;28;20192;-67
2023/04/22 08:58:11;;;;;;;1999.90;999.90;;;;;;;29.58;31.80;94814.91;4985238;28;20234;-66
2023/04/22 09:00:41;;;;;;;1999.90;999.90;;;;;;;29.67;31.48;94820.13;4984162;28;20231;-64
2023/04/22 09:03:07;;;;;;;1999.90;999.90;;;;;;;27.87;32.43;94815.63;4984939;28;20279;-60
2023/04/22 09:05:35;;;;;;;1999.90;999.90;;;;;;;27.38;34.64;94811.34;4984462;28;20196;-64
2023/04/22 09:08:02;;;;;;;1999.90;999.90;;;;;;;27.05;34.21;94811.66;4984605;28;20200;-65
2023/04/22 09:10:28;;;;;;;1999.90;999.90;;;;;;;28.37;32.70;94814.16;4968890;28;20259;-63
2023/04/22 09:12:55;;;;;;;1999.90;999.90;;;;;;;28.20;31.53;94812.38;4984655;28;20203;-61
2023/04/22 09:15:20;;;;;;;1999.90;999.90;;;;;;;28.23;32.17;94802.84;4968704;28;20204;-61
2023/04/22 09:17:46;;;;;;;1999.90;999.90;;;;;;;28.12;31.18;94802.28;4984671;28;20200;-63
2023/04/22 09:20:11;;;;;;;1999.90;999.90;;;;;;;27.84;33.62;94797.03;4984754;28;20212;-64
2023/04/22 09:22:48;;;;;;;1999.90;999.90;;;;;;;28.03;34.84;94809.03;4984458;28;20227;-61
2023/04/22 09:25:15;;;;;;;1999.90;999.90;;;;;;;28.95;33.69;94800.97;4984410;28;20199;-62
2023/04/22 09:27:41;;;;;;;1999.90;999.90;;;;;;;28.38;31.56;94805.94;4984592;28;20180;-57
2023/04/22 09:30:08;;;;;;;1999.90;999.90;;;;;;;27.92;33.20;94792.34;4985020;28;20204;-56
2023/04/22 09:32:33;;;;;;;1999.90;999.90;;;;;;;28.74;31.32;94802.88;4984664;28;20200;-57
2023/04/22 09:35:00;;;;;;;1999.90;999.90;;;;;;;27.81;32.88;94798.06;4984377;28;20271;-59
2023/04/22 09:37:26;;;;;;;1999.90;999.90;;;;;;;26.77;34.64;94802.75;4984710;28;20223;-66
2023/04/22 09:39:53;;;;;;;1999.90;999.90;;;;;;;26.91;34.85;94793.19;4988420;28;20212;-61
2023/04/22 09:42:19;;;;;;;1999.90;999.90;;;;;;;28.43;34.34;94792.41;4988114;28;20207;-62
2023/04/22 09:44:52;;;;;;;1999.90;999.90;;;;;;;28.70;31.05;94791.94;4988343;28;20196;-60
2023/04/22 09:47:19;;;;;;;1999.90;999.90;;;;;;;29.28;31.08;94795.50;4988254;28;20215;-65
2023/04/22 09:49:46;;;;;;;1999.90;999.90;;;;;;;29.46;29.71;94783.41;4987959;28;20275;-63
2023/04/22 09:52:28;;;;;;;1999.90;999.90;;;;;;;29.62;31.14;94779.53;4987940;28;20220;-63
2023/04/22 09:54:53;;;;;;;1999.90;999.90;;;;;;;29.72;31.29;94780.59;4987945;28;20208;-61
2023/04/22 09:57:22;;;;;;;1999.90;999.90;;;;;;;28.49;29.71;94790.25;4971782;28;20224;-63
2023/04/22 09:59:51;;;;;;;1999.90;999.90;;;;;;;28.34;31.41;94783.03;4988200;28;20221;-62
2023/04/22 10:02:17;;;;;;;1999.90;999.90;;;;;;;27.45;30.67;94779.91;4987722;28;20271;-63
2023/04/22 10:04:43;;;;;;;1999.90;999.90;;;;;;;28.10;30.65;94779.56;4987977;28;20200;-62
2023/04/22 10:07:08;;;;;;;1999.90;999.90;;;;;;;27.41;31.64;94765.41;4988208;28;20200;-61
2023/04/22 10:09:34;;;;;;;1999.90;999.90;;;;;;;29.14;29.79;94767.91;4987554;28;20205;-61
2023/04/22 10:12:00;;;;;;;1999.90;999.90;;;;;;;29.70;30.20;94774.00;4987711;28;20197;-63
2023/04/22 10:14:26;;;;;;;1999.90;999.90;;;;;;;29.88;29.36;94761.81;4987269;28;20216;-64
2023/04/22 10:16:57;;;;;;;1999.90;999.90;;;;;;;29.07;30.09;94768.56;4971612;28;20192;-62
2023/04/22 10:19:24;;;;;;;1999.90;999.90;;;;;;;27.30;34.11;94764.78;4987806;28;20208;-63
2023/04/22 10:21:54;;;;;;;1999.90;999.90;;;;;;;26.52;40.03;94764.75;4987791;28;20169;-61
2023/04/22 10:24:20;;;;;;;1999.90;999.90;;;;;;;27.12;38.41;94760.63;4987650;28;20192;-61
2023/04/22 10:26:52;;;;;;;1999.90;999.90;;;;;;;27.08;36.96;94757.34;4987336;28;20200;-61
2023/04/22 10:29:19;;;;;;;1999.90;999.90;;;;;;;27.78;36.58;94750.63;4987620;28;20208;-62
2023/04/22 10:31:53;;;;;;;1999.90;999.90;;;;;;;27.54;35.93;94745.09;4987349;28;20259;-61
2023/04/22 10:34:18;;;;;;;1999.90;999.90;;;;;;;24.93;40.14;94752.38;4987130;28;20215;-61
2023/04/22 10:37:04;;;;;;;1999.90;999.90;;;;;;;27.27;37.27;94743.38;4987480;28;20184;-60
2023/04/22 10:39:30;;;;;;;1999.90;999.90;;;;;;;27.84;36.16;94743.69;4987130;28;20283;-61
2023/04/22 10:42:14;;;;;;;1999.90;999.90;;;;;;;26.08;37.44;94759.50;4987529;28;20232;-61
2023/04/22 10:44:53;;;;;;;1999.90;999.90;;;;;;;25.43;40.13;94752.97;4987413;28;20200;-61
2023/04/22 10:47:30;;;;;;;1999.90;999.90;;;;;;;26.22;39.60;94735.97;4987219;28;20196;-61